Time;durP1;ratioP1;P1;durP2;ratioP2;P2;SDS_P1;SDS_P2;PMS_P1;PMS_P2;Temp;Humidity;BMP_temperature;BMP_pressure;BME280_temperature;BME280_humidity;BME280_pressure;Samples;Min_cycle;Max_cycle;Signal;HPM_P1;HPM_P2
2022/04/21 00:00:07;;;;;;;;;4.25;2.75;;;;;21.17;28.50;100522.03;5056729;28;45374;-71
2022/04/21 00:02:32;;;;;;;;;5.25;3.00;;;;;21.16;28.62;100518.56;5056680;28;45236;-68
2022/04/21 00:04:58;;;;;;;;;3.50;3.50;;;;;21.14;28.91;100511.69;5056748;28;45343;-69
2022/04/21 00:07:24;;;;;;;;;3.75;3.50;;;;;21.15;28.49;100518.66;5056881;28;45266;-69
2022/04/21 00:09:49;;;;;;;;;3.00;3.00;;;;;21.16;28.93;100515.06;5056688;28;45480;-70
2022/04/21 00:12:15;;;;;;;;;3.25;3.25;;;;;21.15;29.13;100506.34;5056679;28;45520;-70
2022/04/21 00:14:40;;;;;;;;;4.75;3.75;;;;;21.15;29.02;100505.47;5056199;28;45430;-69
2022/04/21 00:17:08;;;;;;;;;4.25;4.00;;;;;21.14;28.80;100503.78;5056368;28;45314;-69
2022/04/21 00:19:34;;;;;;;;;4.00;4.00;;;;;21.14;28.57;100506.41;5056228;28;45377;-69
2022/04/21 00:24:43;;;;;;;;;5.25;5.00;;;;;21.13;28.68;100496.81;5056096;28;45481;-69
2022/04/21 00:27:08;;;;;;;;;4.00;4.00;;;;;21.13;28.84;100489.78;5056337;28;45468;-69
2022/04/21 00:29:35;;;;;;;;;4.00;3.25;;;;;21.12;29.07;100490.72;5056063;28;45496;-69
2022/04/21 00:32:00;;;;;;;;;3.25;3.25;;;;;21.12;28.64;100493.34;5056534;28;45254;-70
2022/04/21 00:34:26;;;;;;;;;5.25;4.00;;;;;21.12;29.03;100485.44;5056082;28;46725;-69
2022/04/21 00:36:51;;;;;;;;;4.25;4.00;;;;;21.12;28.76;100492.47;5055995;28;45223;-69
2022/04/21 00:39:16;;;;;;;;;3.25;3.25;;;;;21.12;29.09;100484.56;5056034;28;45277;-70
2022/04/21 00:41:42;;;;;;;;;3.00;3.00;;;;;21.11;28.98;100489.00;5056272;28;45640;-70
2022/04/21 00:44:07;;;;;;;;;5.00;4.00;;;;;21.11;29.02;100483.75;5055757;28;46247;-69
2022/04/21 00:46:37;;;;;;;;;4.00;4.00;;;;;21.12;28.69;100482.81;5056034;28;45293;-69
2022/04/21 00:49:04;;;;;;;;;9.50;5.00;;;;;21.11;29.20;100475.00;5056093;28;45368;-70
2022/04/21 00:51:29;;;;;;;;;4.00;3.50;;;;;21.10;28.98;100479.41;5056528;28;45332;-69
2022/04/21 00:53:55;;;;;;;;;4.75;4.00;;;;;21.10;28.82;100479.41;5056058;28;45310;-70
2022/04/21 00:56:20;;;;;;;;;5.25;4.50;;;;;21.09;29.31;100474.25;5055845;28;45419;-69
2022/04/21 00:58:45;;;;;;;;;4.25;4.00;;;;;21.06;28.81;100477.91;5055990;28;45340;-70
2022/04/21 01:02:46;;;;;;;;;5.25;5.25;;;;;21.09;28.88;100474.25;5056151;28;45617;-69
2022/04/21 01:03:57;;;;;;;;;4.50;3.00;;;;;21.10;29.25;100475.94;5055830;28;45979;-70
2022/04/21 01:06:23;;;;;;;;;7.00;4.75;;;;;21.09;28.83;100463.72;5055720;28;45383;-70
2022/04/21 01:08:48;;;;;;;;;4.75;4.75;;;;;21.09;29.04;100471.63;5055900;28;45320;-69
2022/04/21 01:11:16;;;;;;;;;3.00;3.00;;;;;21.07;28.73;100463.78;5055803;28;45574;-69
2022/04/21 01:13:42;;;;;;;;;4.00;4.00;;;;;21.07;29.21;100460.31;5055526;28;46231;-70
2022/04/21 01:16:07;;;;;;;;;3.00;3.00;;;;;21.08;28.85;100459.38;5055668;28;45482;-70
2022/04/21 01:18:33;;;;;;;;;3.75;3.75;;;;;21.06;29.24;100458.63;5054427;28;45324;-70
2022/04/21 01:20:59;;;;;;;;;1.25;1.25;;;;;21.06;28.96;100448.09;5056001;28;45358;-70
2022/04/21 01:23:24;;;;;;;;;3.75;3.75;;;;;21.04;28.83;100450.84;5055388;28;46336;-70
2022/04/21 01:25:49;;;;;;;;;3.75;3.75;;;;;21.05;29.25;100452.53;5055367;28;45265;-70
2022/04/21 01:28:15;;;;;;;;;4.50;4.50;;;;;21.06;29.06;100458.63;5055645;28;45775;-70
2022/04/21 01:30:40;;;;;;;;;6.50;4.00;;;;;21.06;28.87;100463.91;5054453;28;45277;-70
2022/04/21 01:33:07;;;;;;;;;3.50;3.00;;;;;21.06;29.19;100454.19;5055340;28;45479;-70
2022/04/21 01:35:32;;;;;;;;;4.75;4.75;;;;;21.04;28.97;100460.50;5055495;28;45322;-70
2022/04/21 01:43:25;;;;;;;;;6.75;4.75;;;;;21.04;28.86;100458.75;5055224;28;45361;-70
2022/04/21 01:45:51;;;;;;;;;6.00;4.50;;;;;21.04;28.81;100449.97;5057761;28;45652;-70
2022/04/21 01:48:16;;;;;;;;;4.50;4.50;;;;;21.04;28.79;100444.69;5058851;28;45714;-71
2022/04/21 01:50:41;;;;;;;;;5.00;5.00;;;;;21.04;28.93;100445.56;5057720;28;45466;-71
2022/04/21 01:53:07;;;;;;;;;3.50;3.50;;;;;21.05;29.03;100438.50;5058621;28;46293;-70
2022/04/21 01:55:32;;;;;;;;;5.25;4.25;;;;;21.03;29.27;100435.97;5057148;28;45442;-69
2022/04/21 01:57:58;;;;;;;;;5.00;3.50;;;;;21.03;29.28;100440.38;5059108;28;45770;-70
2022/04/21 02:00:23;;;;;;;;;5.00;5.00;;;;;21.03;29.45;100435.09;5058839;28;45273;-71
2022/04/21 02:02:49;;;;;;;;;6.50;4.50;;;;;21.02;28.81;100439.53;5058393;28;45309;-70
2022/04/21 02:05:14;;;;;;;;;3.00;3.00;;;;;21.01;29.15;100436.03;5058390;28;45292;-71
2022/04/21 02:07:44;;;;;;;;;4.50;4.50;;;;;21.01;29.40;100430.78;5058501;28;45621;-70
2022/04/21 02:10:09;;;;;;;;;5.00;5.00;;;;;21.03;29.41;100427.19;5058675;28;45367;-70
2022/04/21 02:12:35;;;;;;;;;4.00;4.00;;;;;21.00;29.26;100428.25;5058332;28;46196;-70
2022/04/21 02:15:01;;;;;;;;;5.00;4.00;;;;;21.00;29.06;100417.72;5058520;28;45326;-70
2022/04/21 02:17:28;;;;;;;;;5.00;5.00;;;;;20.99;29.39;100424.78;5058489;28;45188;-71
2022/04/21 02:19:54;;;;;;;;;5.25;3.00;;;;;21.00;28.98;100429.09;5056654;28;45295;-70
2022/04/21 02:22:19;;;;;;;;;5.00;5.00;;;;;21.00;29.14;100422.97;5056718;28;47633;-70
2022/04/21 02:24:45;;;;;;;;;5.00;5.00;;;;;20.99;28.81;100416.88;5058186;28;45310;-70
2022/04/21 02:27:11;;;;;;;;;4.50;4.50;;;;;21.00;28.99;100417.72;5058461;28;45386;-70
2022/04/21 02:29:36;;;;;;;;;6.00;6.00;;;;;20.98;28.99;100409.91;5058476;28;45385;-70
2022/04/21 02:32:03;;;;;;;;;4.75;4.00;;;;;20.99;28.93;100411.59;5058408;28;46122;-70
2022/04/21 02:34:29;;;;;;;;;4.00;4.00;;;;;20.99;28.95;100400.22;5058370;28;45403;-69
2022/04/21 02:36:55;;;;;;;;;6.00;6.00;;;;;20.99;28.96;100411.59;5056919;28;45269;-69
2022/04/21 02:39:20;;;;;;;;;4.25;4.25;;;;;20.99;29.44;100408.13;5058472;28;45295;-70
2022/04/21 02:41:45;;;;;;;;;4.25;4.25;;;;;20.98;29.32;100404.66;5057805;28;45321;-70
2022/04/21 02:44:11;;;;;;;;;5.00;5.00;;;;;20.99;28.92;100392.31;5057963;28;45234;-69
2022/04/21 02:46:36;;;;;;;;;6.25;6.25;;;;;20.98;29.57;100396.75;5057900;28;45431;-70
2022/04/21 02:49:02;;;;;;;;;4.00;4.00;;;;;20.98;29.45;100393.25;5058388;28;45238;-70
2022/04/21 02:51:30;;;;;;;;;4.25;4.25;;;;;20.97;29.35;100389.78;5057731;28;45390;-70
2022/04/21 02:59:24;;;;;;;;;5.00;5.00;;;;;20.97;29.14;100399.47;5058006;28;45253;-71
2022/04/21 03:01:50;;;;;;;;;7.50;4.00;;;;;20.96;28.96;100387.22;5056229;28;47717;-69
2022/04/21 03:04:15;;;;;;;;;5.00;5.00;;;;;20.96;29.32;100398.63;5057133;28;55482;-70
2022/04/21 03:06:40;;;;;;;;;4.50;4.50;;;;;20.97;29.54;100386.28;5057840;28;45480;-69
2022/04/21 03:09:06;;;;;;;;;6.50;5.50;;;;;20.95;29.39;100383.75;5057733;28;45494;-69
2022/04/21 03:11:31;;;;;;;;;5.00;5.00;;;;;20.96;29.58;100388.09;5057770;28;45743;-70
2022/04/21 03:13:56;;;;;;;;;5.00;5.00;;;;;20.95;29.40;100382.91;5057461;28;45379;-70
2022/04/21 03:16:22;;;;;;;;;4.75;4.00;;;;;20.95;29.03;100383.75;5057561;28;45367;-70
2022/04/21 03:18:47;;;;;;;;;3.33;3.33;;;;;20.95;29.45;100367.09;5057205;28;49268;-69
2022/04/21 03:26:41;;;;;;;;;4.25;4.25;;;;;20.91;29.11;100365.63;5057575;28;45414;-71
2022/04/21 03:29:06;;;;;;;;;4.75;4.75;;;;;20.93;29.35;100369.84;5057915;28;45462;-70
2022/04/21 03:31:32;;;;;;;;;3.75;3.75;;;;;20.92;29.40;100370.78;5057297;28;46216;-70
2022/04/21 03:33:57;;;;;;;;;4.00;4.00;;;;;20.93;29.54;100363.72;5057011;28;45340;-70
2022/04/21 03:36:23;;;;;;;;;6.00;5.00;;;;;20.93;28.90;100363.72;5057183;28;45263;-69
2022/04/21 03:38:48;;;;;;;;;4.25;4.25;;;;;20.92;29.28;100357.59;5057352;28;45544;-71
2022/04/21 03:41:13;;;;;;;;;4.00;4.00;;;;;20.94;29.34;100368.06;5056981;28;46527;-71
2022/04/21 03:43:39;;;;;;;;;6.00;4.50;;;;;20.93;29.27;100369.84;5057027;28;45338;-69
2022/04/21 03:46:04;;;;;;;;;5.25;4.25;;;;;20.93;29.50;100369.84;5057475;28;45750;-69
2022/04/21 03:48:30;;;;;;;;;4.25;3.00;;;;;20.94;29.18;100375.97;5057276;28;45623;-70
2022/04/21 03:50:56;;;;;;;;;4.00;4.00;;;;;20.94;29.47;100368.06;5056805;28;45719;-69
2022/04/21 03:53:21;;;;;;;;;5.75;4.00;;;;;20.93;29.51;100364.56;5057003;28;45331;-70
2022/04/21 03:55:47;;;;;;;;;5.00;3.00;;;;;20.91;29.77;100366.44;5056961;28;45250;-69
2022/04/21 03:58:13;;;;;;;;;4.25;4.25;;;;;20.93;29.20;100369.00;5055852;28;45652;-70
2022/04/21 04:00:38;;;;;;;;;4.25;4.25;;;;;20.93;29.35;100369.84;5056635;28;46128;-70
2022/04/21 04:03:04;;;;;;;;;3.00;3.00;;;;;20.93;29.28;100369.00;5057016;28;45436;-69
2022/04/21 04:05:29;;;;;;;;;4.00;4.00;;;;;20.91;29.51;100366.44;5056874;28;45250;-69
2022/04/21 04:10:53;;;;;;;;;3.50;3.50;;;;;20.92;29.43;100373.41;5056624;28;45738;-70
2022/04/21 04:13:23;;;;;;;;;5.00;5.00;;;;;20.91;29.13;100379.63;5056501;28;45346;-70
2022/04/21 04:15:51;;;;;;;;;3.25;3.00;;;;;20.92;29.28;100373.41;5056609;28;45248;-69
2022/04/21 04:18:20;;;;;;;;;4.75;4.00;;;;;20.92;29.34;100376.03;5056531;28;45324;-70
2022/04/21 04:20:46;;;;;;;;;4.00;4.00;;;;;20.88;29.72;100369.31;5056112;28;46643;-69
2022/04/21 04:23:21;;;;;;;;;5.00;3.75;;;;;20.90;29.82;100375.28;5056131;28;45408;-69
2022/04/21 04:25:47;;;;;;;;;5.00;5.00;;;;;20.91;29.61;100369.09;5056389;28;45361;-69
2022/04/21 04:28:13;;;;;;;;;5.50;5.00;;;;;20.90;29.00;100370.03;5056593;28;45277;-69
2022/04/21 04:30:39;;;;;;;;;5.50;4.50;;;;;20.90;29.70;100370.03;5055169;28;47137;-69
2022/04/21 04:33:07;;;;;;;;;6.00;4.25;;;;;20.89;29.24;100370.97;5056531;28;45818;-70
2022/04/21 04:35:32;;;;;;;;;6.75;4.00;;;;;20.89;29.85;100368.31;5056095;28;45379;-70
2022/04/21 04:37:58;;;;;;;;;4.00;4.00;;;;;20.88;29.59;100371.94;5056370;28;45489;-70
2022/04/21 04:40:25;;;;;;;;;3.00;3.00;;;;;20.89;29.38;100388.56;5055918;28;45477;-70
2022/04/21 04:42:53;;;;;;;;;5.00;5.00;;;;;20.88;29.59;100385.09;5055933;28;45249;-70
2022/04/21 04:48:02;;;;;;;;;5.00;5.00;;;;;20.86;29.47;100384.34;5056363;28;45533;-69
2022/04/21 04:50:28;;;;;;;;;5.00;5.00;;;;;20.87;29.53;100391.31;5055853;28;46322;-69
2022/04/21 04:53:00;;;;;;;;;5.00;5.00;;;;;20.87;29.71;100391.31;5055734;28;46673;-69
2022/04/21 04:55:26;;;;;;;;;4.75;4.25;;;;;20.88;29.39;100402.69;5056039;28;45446;-69
2022/04/21 04:57:51;;;;;;;;;5.00;5.00;;;;;20.88;29.07;100400.06;5056244;28;45562;-70
2022/04/21 05:00:17;;;;;;;;;4.00;4.00;;;;;20.87;29.04;100393.94;5055753;28;45375;-70
2022/04/21 05:02:43;;;;;;;;;5.00;5.00;;;;;20.85;29.63;100390.56;5055874;28;45715;-70
2022/04/21 05:05:08;;;;;;;;;4.00;4.00;;;;;20.85;29.42;100396.66;5056000;28;47357;-70
2022/04/21 05:07:35;;;;;;;;;4.00;3.25;;;;;20.85;29.01;100399.28;5054821;28;45293;-70
2022/04/21 05:10:00;;;;;;;;;4.75;4.75;;;;;20.86;29.47;100410.69;5055807;28;46056;-68
2022/04/21 05:12:26;;;;;;;;;4.00;4.00;;;;;20.85;29.01;100401.09;5055614;28;45500;-69
2022/04/21 05:14:52;;;;;;;;;4.75;4.75;;;;;20.86;29.10;100402.78;5054387;28;45332;-70
2022/04/21 05:17:18;;;;;;;;;4.00;4.00;;;;;20.85;29.11;100403.72;5055844;28;45622;-70
2022/04/21 05:19:44;;;;;;;;;3.50;3.50;;;;;20.85;29.53;100404.56;5055906;28;45449;-70
2022/04/21 05:22:11;;;;;;;;;5.00;3.25;;;;;20.86;29.21;100410.69;5059184;28;45436;-70
2022/04/21 05:24:38;;;;;;;;;3.25;3.25;;;;;20.84;29.51;100397.59;5057929;28;45473;-71
2022/04/21 05:27:04;;;;;;;;;4.75;4.75;;;;;20.83;29.59;100409.09;5059259;28;45271;-70
2022/04/21 05:32:28;;;;;;;;;4.00;4.00;;;;;20.85;29.20;100404.56;5013777;28;45389;-69
2022/04/21 05:34:54;;;;;;;;;4.00;4.00;;;;;20.86;28.94;100405.44;5059042;28;45424;-69
2022/04/21 05:37:20;;;;;;;;;5.50;4.00;;;;;20.84;29.56;100402.03;5057858;28;45560;-70
2022/04/21 05:39:45;;;;;;;;;4.75;4.75;;;;;20.85;29.62;100401.09;5058716;28;46176;-70
2022/04/21 05:42:20;;;;;;;;;4.50;4.50;;;;;20.85;29.43;100395.81;5057720;28;45383;-71
2022/04/21 05:44:46;;;;;;;;;5.00;5.00;;;;;20.86;29.03;100394.88;5058933;28;45267;-70
2022/04/21 05:47:12;;;;;;;;;3.00;3.00;;;;;20.83;29.20;100392.44;5059322;28;45232;-71
2022/04/21 05:49:38;;;;;;;;;4.25;4.25;;;;;20.86;29.38;100402.78;5058705;28;46236;-70
2022/04/21 05:52:07;;;;;;;;;5.00;5.00;;;;;20.86;29.16;100389.63;5057314;28;45785;-70
2022/04/21 05:54:32;;;;;;;;;6.25;6.00;;;;;20.86;29.62;100392.25;5058565;27;45363;-69
2022/04/21 05:56:59;;;;;;;;;3.50;3.50;;;;;20.85;29.24;100390.56;5057542;28;45585;-69
2022/04/21 05:59:24;;;;;;;;;4.00;3.50;;;;;20.85;29.30;100393.19;5057957;28;46315;-70
2022/04/21 06:01:50;;;;;;;;;4.00;4.00;;;;;20.87;29.60;100387.81;5057004;28;45505;-69
2022/04/21 06:04:15;;;;;;;;;2.25;2.25;;;;;20.87;29.23;100385.19;5058211;28;46953;-71
2022/04/21 06:06:40;;;;;;;;;6.75;5.00;;;;;20.85;29.64;100383.50;5057868;28;45250;-70
2022/04/21 06:09:06;;;;;;;;;5.00;5.00;;;;;20.85;29.13;100386.13;5058237;28;45377;-70
2022/04/21 06:11:33;;;;;;;;;5.75;3.50;;;;;20.87;29.43;100382.56;5058397;28;45368;-69
2022/04/21 06:13:58;;;;;;;;;5.00;5.00;;;;;20.88;28.99;100387.75;5058492;28;45344;-70
2022/04/21 06:16:23;;;;;;;;;4.00;4.00;;;;;20.86;29.37;100384.34;5058619;28;45551;-70
2022/04/21 06:18:50;;;;;;;;;5.00;5.00;;;;;20.87;28.97;100377.28;5058133;28;45261;-70
2022/04/21 06:21:15;;;;;;;;;6.00;4.00;;;;;20.86;29.13;100384.34;5058214;28;45798;-70
2022/04/21 06:23:40;;;;;;;;;6.00;5.25;;;;;20.86;29.56;100379.09;5058483;28;46000;-69
2022/04/21 06:26:06;;;;;;;;;5.00;5.00;;;;;20.83;29.18;100385.41;5058407;28;45343;-69
2022/04/21 06:28:34;;;;;;;;;4.00;4.00;;;;;20.87;29.24;100379.91;5057926;28;46810;-69
2022/04/21 06:30:59;;;;;;;;;5.00;5.00;;;;;20.88;29.07;100381.59;5057630;28;45276;-70
2022/04/21 06:33:25;;;;;;;;;4.50;4.50;;;;;20.86;29.17;100376.44;5058075;28;45313;-70
2022/04/21 06:35:50;;;;;;;;;4.00;4.00;;;;;20.87;29.12;100380.78;5056894;28;45368;-71
2022/04/21 06:38:16;;;;;;;;;4.00;4.00;;;;;20.87;29.45;100385.19;5058054;28;45412;-71
2022/04/21 06:40:41;;;;;;;;;4.75;3.50;;;;;20.89;29.54;100384.13;5058129;28;45332;-71
2022/04/21 06:48:36;;;;;;;;;4.25;4.25;;;;;20.88;29.37;100381.59;5057692;28;45421;-71
2022/04/21 06:51:02;;;;;;;;;4.25;4.25;;;;;20.88;28.92;100379.84;5057766;28;45240;-64
2022/04/21 06:53:29;;;;;;;;;4.75;4.50;;;;;20.88;29.13;100374.56;5057668;28;45213;-66
2022/04/21 06:55:55;;;;;;;;;6.00;5.00;;;;;20.88;29.57;100371.94;5057847;28;45158;-65
2022/04/21 06:58:20;;;;;;;;;4.00;4.00;;;;;20.89;29.37;100370.97;5057612;28;45508;-67
2022/04/21 07:00:47;;;;;;;;;5.50;3.50;;;;;20.89;29.28;100368.31;5057747;28;45420;-62
2022/04/21 07:03:12;;;;;;;;;5.00;3.00;;;;;20.91;29.10;100370.88;5057626;28;45376;-65
2022/04/21 07:05:38;;;;;;;;;3.00;3.00;;;;;20.91;29.57;100373.53;5057738;28;45562;-65
2022/04/21 07:08:03;;;;;;;;;4.25;4.00;;;;;20.91;29.09;100366.44;5057283;28;45300;-62
2022/04/21 07:10:29;;;;;;;;;4.25;4.25;;;;;20.92;29.71;100368.13;5057378;28;45405;-64
2022/04/21 07:12:54;;;;;;;;;4.75;4.75;;;;;20.93;29.47;100363.72;5055975;28;45429;-62
2022/04/21 07:15:19;;;;;;;;;6.00;3.75;;;;;20.93;29.80;100359.28;5057511;28;45612;-65
2022/04/21 07:17:44;;;;;;;;;8.00;5.00;;;;;20.94;29.28;100361.00;5057397;28;45943;-64
2022/04/21 07:20:12;;;;;;;;;5.00;5.00;;;;;20.95;29.60;100362.69;5055545;28;45466;-65
2022/04/21 07:22:38;;;;;;;;;4.50;4.50;;;;;20.97;29.42;100360.81;5057286;28;45295;-65
2022/04/21 07:25:07;;;;;;;;;4.50;4.50;;;;;21.00;29.96;100359.75;5057424;28;45243;-66
2022/04/21 07:27:32;;;;;;;;;7.00;5.75;;;;;21.03;29.79;100356.06;5057045;28;45582;-69
2022/04/21 07:29:58;;;;;;;;;6.00;5.00;;;;;21.03;29.79;100363.97;5056961;28;45558;-67
2022/04/21 07:32:23;;;;;;;;;5.50;5.50;;;;;21.04;29.39;100360.38;5057068;28;45386;-67
2022/04/21 07:34:49;;;;;;;;;5.00;3.50;;;;;21.04;29.38;100349.84;5061822;28;45552;-66
2022/04/21 07:37:14;;;;;;;;;3.25;3.25;;;;;21.04;29.49;100355.13;5076793;27;46278;-66
2022/04/21 07:39:43;;;;;;;;;4.25;4.25;;;;;21.04;29.98;100339.31;5092626;27;45475;-66
2022/04/21 07:42:12;;;;;;;;;5.75;5.00;;;;;21.04;29.45;100350.72;5068488;27;45437;-67
2022/04/21 07:44:38;;;;;;;;;6.00;5.00;;;;;21.04;29.86;100339.31;5075150;28;45418;-66
2022/04/21 07:47:05;;;;;;;;;5.25;4.00;;;;;21.06;30.00;100342.69;5076533;27;46190;-65
2022/04/21 07:49:46;;;;;;;;;4.00;4.00;;;;;21.05;29.97;100341.00;5076870;27;45451;-66
2022/04/21 07:55:22;;;;;;;;;5.00;5.00;;;;;21.06;29.58;100348.78;5075320;28;45889;-66
2022/04/21 07:57:47;;;;;;;;;4.50;4.00;;;;;21.07;30.09;100349.66;5077233;28;46182;-67
2022/04/21 08:00:16;;;;;;;;;7.00;4.00;;;;;21.07;29.44;100354.94;5076710;27;45484;-65
2022/04/21 08:02:43;;;;;;;;;6.00;5.00;;;;;21.07;29.59;100360.19;5075305;28;45456;-66
2022/04/21 08:05:10;;;;;;;;;8.00;5.50;;;;;21.07;29.81;100350.50;5077035;27;45345;-67
2022/04/21 08:07:36;;;;;;;;;4.75;4.50;;;;;21.08;30.03;100353.97;5076373;27;45406;-67
2022/04/21 08:10:09;;;;;;;;;5.00;5.00;;;;;21.08;29.85;100353.97;5075327;27;45898;-66
2022/04/21 08:12:48;;;;;;;;;4.25;4.25;;;;;21.08;30.04;100351.34;5075716;28;45449;-66
2022/04/21 08:15:25;;;;;;;;;5.75;5.75;;;;;21.09;29.79;100353.03;5077149;27;45245;-66
2022/04/21 08:17:53;;;;;;;;;6.00;6.00;;;;;21.10;29.71;100360.00;5076727;27;46377;-66
2022/04/21 08:20:19;;;;;;;;;5.00;4.00;;;;;21.07;29.46;100354.94;5076703;27;45916;-66
2022/04/21 08:22:44;;;;;;;;;5.00;5.00;;;;;21.09;29.87;100359.16;5076806;27;45288;-67
2022/04/21 08:33:22;;;;;;;;;3.00;3.00;;;;;21.10;29.74;100354.72;5076495;28;45362;-66
2022/04/21 08:35:49;;;;;;;;;5.25;4.75;;;;;21.11;29.80;100353.78;5077119;27;45499;-67
2022/04/21 08:38:15;;;;;;;;;5.50;5.00;;;;;21.09;29.82;100356.50;5076364;27;46208;-67
2022/04/21 08:40:56;;;;;;;;;6.00;4.25;;;;;21.12;29.72;100355.44;5076340;27;45263;-67
2022/04/21 08:43:23;;;;;;;;;8.00;6.00;;;;;21.11;29.74;100357.25;5074923;27;45579;-66
2022/04/21 08:45:49;;;;;;;;;5.75;5.00;;;;;21.11;29.54;100351.16;5077015;27;45468;-66
2022/04/21 08:48:21;;;;;;;;;5.25;3.50;;;;;21.11;29.88;100345.88;5076203;27;47191;-67
2022/04/21 08:50:46;;;;;;;;;5.25;5.25;;;;;21.13;29.56;100349.25;5076121;27;45934;-66
2022/04/21 08:53:19;;;;;;;;;6.25;4.75;;;;;21.13;29.55;100347.47;5076547;27;45399;-66
2022/04/21 08:55:46;;;;;;;;;7.00;5.00;;;;;21.12;29.69;100356.31;5080078;27;45539;-67
2022/04/21 08:58:14;;;;;;;;;5.25;4.50;;;;;21.14;29.55;100356.22;5079897;27;45452;-65
2022/04/21 09:00:42;;;;;;;;;5.25;5.00;;;;;21.13;29.42;100349.25;5079846;27;45511;-65
2022/04/21 09:03:08;;;;;;;;;5.00;5.00;;;;;21.13;29.49;100354.50;5061463;28;45495;-65
2022/04/21 09:05:35;;;;;;;;;4.75;4.75;;;;;21.14;29.94;100345.66;5080010;27;45330;-65
2022/04/21 09:08:01;;;;;;;;;8.25;5.25;;;;;21.15;29.78;100355.25;5078327;28;47101;-65
2022/04/21 09:10:29;;;;;;;;;6.75;5.50;;;;;21.15;29.39;100347.34;5079596;27;45340;-65
2022/04/21 09:12:56;;;;;;;;;7.50;6.00;;;;;21.15;29.29;100350.00;5079951;27;45420;-65
2022/04/21 09:15:24;;;;;;;;;4.75;4.75;;;;;21.14;29.52;100346.53;5080179;27;45556;-65
2022/04/21 09:17:56;;;;;;;;;3.00;3.00;;;;;21.15;29.78;100340.31;5079997;27;46210;-65
2022/04/21 09:20:33;;;;;;;;;6.50;5.00;;;;;21.16;29.72;100339.38;5079501;27;45788;-65
2022/04/21 09:23:01;;;;;;;;;5.50;5.50;;;;;21.16;29.43;100335.88;5079542;27;45273;-65
2022/04/21 09:25:47;;;;;;;;;6.00;4.75;;;;;21.16;29.51;100331.47;5079774;27;45556;-64
2022/04/21 09:28:29;;;;;;;;;7.25;7.25;;;;;21.18;29.77;100341.91;5077684;28;47305;-66
2022/04/21 09:31:00;;;;;;;;;14.75;12.75;;;;;21.19;29.51;100337.44;5076672;27;46261;-65
2022/04/21 09:33:26;;;;;;;;;29.75;26.50;;;;;21.20;29.79;100344.41;5077573;27;45477;-67
2022/04/21 09:35:52;;;;;;;;;30.50;29.25;;;;;21.21;29.39;100331.16;5079425;27;45911;-68
2022/04/21 09:38:18;;;;;;;;;38.25;30.25;;;;;21.22;29.47;100334.63;5079026;27;45242;-67
2022/04/21 09:40:45;;;;;;;;;38.50;33.25;;;;;21.22;29.73;100326.72;5078804;27;45238;-67
2022/04/21 09:43:10;;;;;;;;;37.00;33.50;;;;;21.23;29.56;100326.59;5077711;28;45864;-67
2022/04/21 09:48:38;;;;;;;;;42.50;36.00;;;;;21.24;29.35;100324.81;5036092;28;46173;-68
2022/04/21 09:51:12;;;;;;;;;46.50;36.75;;;;;21.24;29.71;100325.66;5070191;27;45519;-69
2022/04/21 09:54:02;;;;;;;;;48.75;36.00;;;;;21.25;29.58;100323.88;5079134;27;45409;-68
2022/04/21 09:56:40;;;;;;;;;41.50;36.25;;;;;21.25;29.36;100323.88;5078999;27;45737;-69
2022/04/21 09:59:08;;;;;;;;;51.75;39.50;;;;;21.25;29.17;100313.34;5077595;28;46398;-68
2022/04/21 10:01:37;;;;;;;;;47.25;39.50;;;;;21.25;29.69;100306.28;5078705;27;45177;-67
2022/04/21 10:04:06;;;;;;;;;45.25;36.75;;;;;21.25;29.86;100316.81;5078851;28;45457;-68
2022/04/21 10:06:32;;;;;;;;;43.25;36.25;;;;;21.24;29.29;100307.22;5077653;27;45354;-68
2022/04/21 10:08:58;;;;;;;;;42.75;36.00;;;;;21.25;29.76;100306.28;5076410;27;45349;-67
2022/04/21 10:11:24;;;;;;;;;45.25;38.00;;;;;21.25;29.46;100301.00;5077451;27;45887;-67
2022/04/21 10:13:55;;;;;;;;;46.75;37.75;;;;;21.27;29.60;100296.47;5078523;27;45343;-66
2022/04/21 10:16:26;;;;;;;;;43.75;35.00;;;;;21.28;29.71;100297.31;5078574;28;45444;-66
2022/04/21 10:18:54;;;;;;;;;46.50;34.25;;;;;21.29;29.72;100297.22;5078469;27;46350;-66
2022/04/21 10:21:37;;;;;;;;;37.75;33.25;;;;;21.31;29.76;100286.56;5077753;27;46074;-69
2022/04/21 10:24:04;;;;;;;;;35.75;32.25;;;;;21.29;29.46;100283.19;5078463;28;45384;-68
2022/04/21 10:26:43;;;;;;;;;32.00;30.50;;;;;21.31;29.74;100279.50;5078617;27;45396;-66
2022/04/21 10:29:13;;;;;;;;;35.25;33.25;;;;;21.34;29.99;100274.97;5078159;28;45747;-67
2022/04/21 10:31:59;;;;;;;;;34.00;29.50;;;;;21.35;29.68;100276.66;5077716;28;45384;-66
2022/04/21 10:34:29;;;;;;;;;30.00;26.00;;;;;21.36;29.33;100270.44;5078677;27;45330;-66
2022/04/21 10:37:17;;;;;;;;;22.25;21.00;;;;;21.34;29.23;100272.31;5078773;27;45611;-66
2022/04/21 10:40:07;;;;;;;;;20.00;19.25;;;;;21.30;28.12;100277.81;5078106;27;46026;-67
2022/04/21 10:42:51;;;;;;;;;16.25;15.25;;;;;21.24;28.15;100278.22;5077866;27;45257;-66
2022/04/21 10:45:22;;;;;;;;;17.25;15.25;;;;;21.20;27.94;100260.09;5078128;27;45219;-66
2022/04/21 10:48:03;;;;;;;;;19.00;17.50;;;;;21.15;27.39;100274.44;5077148;28;45285;-66
2022/04/21 10:50:33;;;;;;;;;15.25;12.00;;;;;21.12;27.36;100265.88;5078006;27;46003;-66
2022/04/21 10:58:32;;;;;;;;;14.25;14.25;;;;;21.05;27.43;100273.38;5078632;28;45542;-67
2022/04/21 11:01:17;;;;;;;;;16.00;14.00;;;;;21.01;27.28;100256.88;5078197;27;45865;-67
2022/04/21 11:03:45;;;;;;;;;14.75;14.75;;;;;21.00;26.96;100259.63;5077845;27;45907;-67
2022/04/21 11:06:12;;;;;;;;;17.50;14.75;;;;;20.98;26.98;100249.22;5078088;27;45401;-67
2022/04/21 11:08:38;;;;;;;;;14.25;12.50;;;;;20.98;27.11;100251.84;5076559;28;45388;-66
2022/04/21 11:11:04;;;;;;;;;13.50;12.25;;;;;20.98;26.74;100251.84;5077732;27;46955;-66
2022/04/21 11:13:50;;;;;;;;;14.25;12.00;;;;;20.97;26.88;100255.41;5077920;28;45484;-66
2022/04/21 11:16:40;;;;;;;;;14.75;14.75;;;;;20.99;27.05;100255.31;5077734;27;45381;-67
2022/04/21 11:19:33;;;;;;;;;11.00;11.00;;;;;20.97;26.67;100244.88;5077967;28;45606;-65
2022/04/21 11:22:05;;;;;;;;;10.75;10.50;;;;;20.96;26.36;100235.28;5077901;27;46622;-66
2022/04/21 11:24:55;;;;;;;;;11.25;10.75;;;;;20.95;26.88;100219.56;5077726;27;45816;-66
2022/04/21 11:27:21;;;;;;;;;11.00;10.00;;;;;20.93;26.86;100222.31;5077880;28;45364;-66
2022/04/21 11:29:47;;;;;;;;;12.00;12.00;;;;;20.94;26.83;100217.91;5077823;28;45407;-67
2022/04/21 11:32:16;;;;;;;;;11.00;10.50;;;;;20.93;26.90;100222.31;5077238;27;45519;-67
2022/04/21 11:34:56;;;;;;;;;11.50;10.00;;;;;20.94;26.68;100224.00;5077317;27;45256;-68
2022/04/21 11:37:21;;;;;;;;;14.50;10.50;;;;;20.91;26.02;100212.84;5077416;27;45375;-67
2022/04/21 11:39:46;;;;;;;;;11.75;11.00;;;;;20.92;26.00;100219.78;5077582;28;45389;-67
2022/04/21 11:42:22;;;;;;;;;11.25;10.00;;;;;20.92;26.03;100230.31;5077077;27;46134;-66
2022/04/21 11:44:47;;;;;;;;;14.00;11.75;;;;;20.92;25.98;100230.31;5076209;28;45301;-66
2022/04/21 11:47:19;;;;;;;;;10.75;10.00;;;;;20.91;25.73;100218.94;5075868;28;45285;-67
2022/04/21 11:49:58;;;;;;;;;13.00;11.00;;;;;20.92;26.37;100217.16;5077474;27;45377;-68
2022/04/21 11:52:27;;;;;;;;;8.50;8.50;;;;;20.92;25.70;100214.53;5075691;28;47770;-67
2022/04/21 11:55:04;;;;;;;;;10.25;7.75;;;;;20.91;25.86;100224.19;5077153;27;45361;-66
2022/04/21 11:57:43;;;;;;;;;13.75;9.50;;;;;20.92;25.60;100218.00;5077558;28;45291;-67
2022/04/21 12:00:09;;;;;;;;;10.25;10.25;;;;;20.93;25.75;100210.94;5077240;27;45274;-67
2022/04/21 12:08:10;;;;;;;;;10.75;8.75;;;;;20.93;25.69;100201.25;5076971;28;45321;-66
2022/04/21 12:10:36;;;;;;;;;10.75;9.25;;;;;20.95;26.13;100201.13;5075742;28;45482;-67
2022/04/21 12:13:02;;;;;;;;;9.25;9.25;;;;;20.94;25.83;100187.13;5077020;27;46243;-67
2022/04/21 12:15:29;;;;;;;;;11.50;9.75;;;;;20.94;25.69;100187.13;5073843;28;45351;-67
2022/04/21 12:18:02;;;;;;;;;11.25;10.00;;;;;20.96;25.43;100185.25;5076148;27;45380;-66
2022/04/21 12:20:28;;;;;;;;;11.25;11.25;;;;;20.95;25.55;100198.50;5075238;28;45562;-67
2022/04/21 12:22:54;;;;;;;;;10.75;9.75;;;;;20.94;25.77;100181.03;5076422;27;45475;-67